createdAt,value
2018-12-22T00:00:53.984Z,24.90
2018-12-22T00:05:59.101Z,28.07
2018-12-22T00:11:01.597Z,23.10
2018-12-22T00:16:04.070Z,29.23
2018-12-22T00:21:06.543Z,20.77
2018-12-22T00:26:20.772Z,30.87
2018-12-22T00:31:26.847Z,24.00
2018-12-22T00:36:32.519Z,30.13
2018-12-22T00:41:40.729Z,22.23
2018-12-22T00:46:43.186Z,22.93
2018-12-22T00:56:53.880Z,24.43
2018-12-22T01:01:56.422Z,25.37
2018-12-22T01:06:58.898Z,23.73
2018-12-22T01:12:01.367Z,28.00
2018-12-22T01:17:03.981Z,26.90
2018-12-22T01:22:06.491Z,24.20
2018-12-22T01:27:09.040Z,28.30
2018-12-22T01:32:11.507Z,32.03
2018-12-22T01:37:14.099Z,30.37
2018-12-22T01:42:16.647Z,33.87
2018-12-22T01:47:19.115Z,29.03
2018-12-22T01:52:21.598Z,29.33
2018-12-22T01:57:24.298Z,28.20
2018-12-22T02:02:26.764Z,27.57
2018-12-22T02:07:29.261Z,26.27
2018-12-22T02:12:32.111Z,23.77
2018-12-22T02:17:34.576Z,33.80
2018-12-22T02:22:37.124Z,18.60
2018-12-22T02:27:39.637Z,25.27
2018-12-22T02:32:42.133Z,27.07
2018-12-22T02:37:44.623Z,23.27
2018-12-22T02:42:47.092Z,26.57
2018-12-22T02:47:49.548Z,28.23
2018-12-22T02:58:01.611Z,25.87
2018-12-22T03:03:04.080Z,24.80
2018-12-22T03:08:06.554Z,24.80
2018-12-22T03:13:09.033Z,14.87
2018-12-22T03:18:11.664Z,24.47
2018-12-22T03:23:14.340Z,18.17
2018-12-22T03:28:16.905Z,24.87
2018-12-22T03:33:19.399Z,21.67
2018-12-22T03:38:21.865Z,22.77
2018-12-22T03:43:24.419Z,27.00
2018-12-22T03:48:26.892Z,21.70
2018-12-22T03:53:29.457Z,28.87
2018-12-22T03:58:32.006Z,32.00
2018-12-22T04:03:34.624Z,27.43
2018-12-22T04:08:37.126Z,20.00
2018-12-22T04:13:39.576Z,20.40
2018-12-22T04:18:42.072Z,24.03
2018-12-22T04:23:44.620Z,20.33
2018-12-22T04:28:47.204Z,17.00
2018-12-22T04:33:49.656Z,10.33
2018-12-22T04:38:52.156Z,12.40
2018-12-22T04:43:54.620Z,13.37
2018-12-22T04:48:57.077Z,17.40
2018-12-22T04:53:59.574Z,11.37
2018-12-22T04:59:02.067Z,10.40
2018-12-22T05:04:04.669Z,8.07
2018-12-22T05:09:07.172Z,5.73
2018-12-22T05:14:09.625Z,10.43
2018-12-22T05:19:12.123Z,8.10
2018-12-22T05:24:14.881Z,8.57
2018-12-22T05:29:17.363Z,8.00
2018-12-22T05:34:19.818Z,8.93
2018-12-22T05:39:22.502Z,8.07
2018-12-22T05:44:24.957Z,5.97
2018-12-22T05:49:27.408Z,7.10
2018-12-22T05:54:30.874Z,9.13
2018-12-22T05:59:33.347Z,6.33
2018-12-22T06:04:35.807Z,6.60
2018-12-22T06:09:40.233Z,4.03
2018-12-22T06:14:42.693Z,6.73
2018-12-22T06:19:45.187Z,9.13
2018-12-22T06:24:48.641Z,5.27
2018-12-22T06:29:55.650Z,7.53
2018-12-22T06:34:59.080Z,8.87
2018-12-22T06:40:01.652Z,6.37
2018-12-22T06:45:04.905Z,8.07
2018-12-22T06:50:07.395Z,7.80
2018-12-22T06:55:09.855Z,5.13
2018-12-22T07:00:17.710Z,5.57
2018-12-22T07:05:17.002Z,4.67
2018-12-22T07:10:19.456Z,4.73
2018-12-22T07:15:23.715Z,5.00
2018-12-22T07:20:26.212Z,7.90
2018-12-22T07:25:28.677Z,7.60
2018-12-22T07:30:31.824Z,5.80
2018-12-22T07:35:34.340Z,5.73
2018-12-22T07:40:36.820Z,6.77
2018-12-22T07:45:39.287Z,7.80
2018-12-22T07:50:41.803Z,6.13
2018-12-22T07:55:46.463Z,3.93
2018-12-22T08:00:48.996Z,4.80
2018-12-22T08:05:51.484Z,6.50
2018-12-22T08:10:54.065Z,3.40
2018-12-22T08:15:56.654Z,2.47
2018-12-22T08:21:00.146Z,4.47
2018-12-22T08:26:02.614Z,1.83
2018-12-22T08:31:05.137Z,3.80
2018-12-22T08:36:07.648Z,4.00
2018-12-22T08:41:10.509Z,3.90
2018-12-22T08:46:12.976Z,4.87
2018-12-22T08:51:15.448Z,4.47
2018-12-22T08:56:17.935Z,2.30
2018-12-22T09:01:20.404Z,1.87
2018-12-22T09:06:22.877Z,4.33
2018-12-22T09:11:25.343Z,4.30
2018-12-22T09:16:27.804Z,4.77
2018-12-22T09:21:30.283Z,5.77
2018-12-22T09:26:32.918Z,4.77
2018-12-22T09:31:35.393Z,6.50
2018-12-22T09:36:37.940Z,5.00
2018-12-22T09:41:40.420Z,3.73
2018-12-22T09:46:42.916Z,3.40
2018-12-22T09:51:45.409Z,4.67
2018-12-22T09:56:47.890Z,4.90
2018-12-22T10:01:51.281Z,6.33
2018-12-22T10:06:54.334Z,6.30
2018-12-22T10:11:57.992Z,8.70
2018-12-22T10:17:01.170Z,6.80
2018-12-22T10:22:04.295Z,7.40
2018-12-22T10:27:06.859Z,8.10
2018-12-22T10:32:09.308Z,2.70
2018-12-22T10:37:11.964Z,5.83
2018-12-22T10:42:15.216Z,6.53
2018-12-22T10:47:18.127Z,5.53
2018-12-22T10:52:20.672Z,7.07
2018-12-22T10:57:23.209Z,8.57
2018-12-22T11:02:26.492Z,13.77
2018-12-22T11:07:29.581Z,5.27
2018-12-22T11:12:32.137Z,6.87
2018-12-22T11:17:34.680Z,3.97
2018-12-22T11:22:37.475Z,5.17
2018-12-22T11:27:40.113Z,8.13
2018-12-22T11:32:42.796Z,7.83
2018-12-22T11:37:45.264Z,7.87
2018-12-22T11:42:48.060Z,7.00
2018-12-22T11:47:51.761Z,5.63
2018-12-22T11:52:54.288Z,5.97
2018-12-22T11:57:56.790Z,4.10
2018-12-22T12:02:59.337Z,4.00
2018-12-22T12:08:01.937Z,8.47
2018-12-22T12:13:04.971Z,5.57
2018-12-22T12:18:16.928Z,1.37
2018-12-22T12:23:19.423Z,1.73
2018-12-22T12:28:21.876Z,2.67
2018-12-22T12:33:24.369Z,2.00
2018-12-22T12:38:26.820Z,2.03
2018-12-22T12:43:29.264Z,3.67
2018-12-22T12:48:31.936Z,2.10
2018-12-22T12:53:34.540Z,10.60
2018-12-22T12:58:36.968Z,1.67
2018-12-22T13:03:39.825Z,1.60
2018-12-22T13:08:42.278Z,3.40
2018-12-22T13:13:46.015Z,2.37
2018-12-22T13:18:48.513Z,2.50
2018-12-22T13:23:51.236Z,4.50
2018-12-22T13:28:53.690Z,5.40
2018-12-22T13:33:56.263Z,5.60
2018-12-22T13:38:59.841Z,7.17
2018-12-22T13:44:02.416Z,8.73
2018-12-22T13:49:05.082Z,5.30
2018-12-22T13:54:07.649Z,5.73
2018-12-22T13:59:11.164Z,4.93
2018-12-22T14:04:14.718Z,6.00
2018-12-22T14:09:18.100Z,9.30
2018-12-22T14:14:20.598Z,9.50
2018-12-22T14:19:24.998Z,5.33
2018-12-22T14:24:30.100Z,6.47
2018-12-22T14:29:40.290Z,5.37
2018-12-22T14:34:46.229Z,7.20
2018-12-22T14:39:47.245Z,7.20
2018-12-22T14:44:49.716Z,6.93
2018-12-22T14:49:52.165Z,4.13
2018-12-22T14:54:54.668Z,5.03
2018-12-22T14:59:57.167Z,3.77
2018-12-22T15:04:59.642Z,2.43
2018-12-22T15:10:02.264Z,3.50
2018-12-22T15:15:10.963Z,4.57
2018-12-22T15:20:21.074Z,10.10
2018-12-22T15:25:24.478Z,5.83
2018-12-22T15:30:26.969Z,6.70
2018-12-22T15:35:29.403Z,8.23
2018-12-22T15:40:31.869Z,6.83
2018-12-22T15:45:34.347Z,27.40
2018-12-22T15:50:40.088Z,31.83
2018-12-22T15:55:42.532Z,19.87
2018-12-22T16:00:45.016Z,4.53
2018-12-22T16:05:47.507Z,5.50
2018-12-22T16:10:49.967Z,5.73
2018-12-22T16:15:53.321Z,7.73
2018-12-22T16:20:55.801Z,6.17
2018-12-22T16:25:58.347Z,5.67
2018-12-22T16:31:00.880Z,9.23
2018-12-22T16:36:03.442Z,8.20
2018-12-22T16:41:06.188Z,8.37
2018-12-22T16:46:08.787Z,7.53
2018-12-22T16:51:11.267Z,8.87
2018-12-22T16:56:13.722Z,6.83
2018-12-22T17:01:22.828Z,7.13
2018-12-22T17:06:25.333Z,10.07
2018-12-22T17:11:27.824Z,8.57
2018-12-22T17:16:30.315Z,8.83
2018-12-22T17:21:32.847Z,11.27
2018-12-22T17:26:35.467Z,7.73
2018-12-22T17:31:38.008Z,8.10
2018-12-22T17:36:40.454Z,7.63
2018-12-22T17:41:48.469Z,8.40
2018-12-22T17:52:49.055Z,8.50
2018-12-22T17:57:53.646Z,6.63
2018-12-22T18:02:56.123Z,9.37
2018-12-22T18:07:59.566Z,10.00
2018-12-22T18:19:20.845Z,11.97
2018-12-22T18:24:23.371Z,12.60
2018-12-22T18:29:25.913Z,11.63
2018-12-22T18:34:44.334Z,10.17
2018-12-22T18:39:47.397Z,13.30
2018-12-22T18:44:53.736Z,6.77
2018-12-22T18:49:56.244Z,9.13
2018-12-22T18:55:00.377Z,9.73
2018-12-22T19:00:04.488Z,29.37
2018-12-22T19:05:08.276Z,21.27
2018-12-22T19:10:17.810Z,18.10
2018-12-22T19:15:20.267Z,11.30
2018-12-22T19:20:26.659Z,7.80
2018-12-22T19:25:33.668Z,12.07
2018-12-22T19:30:37.112Z,20.77
2018-12-22T19:35:39.569Z,11.47
2018-12-22T19:40:42.107Z,17.27
2018-12-22T19:45:44.579Z,15.33
2018-12-22T19:50:50.272Z,17.13
2018-12-22T19:55:54.678Z,16.00
2018-12-22T20:01:00.096Z,13.57
2018-12-22T20:06:03.850Z,16.87
2018-12-22T20:11:07.882Z,14.23
2018-12-22T20:16:10.341Z,17.10
2018-12-22T20:21:12.824Z,14.77
2018-12-22T20:26:17.280Z,18.20
2018-12-22T20:31:19.852Z,15.13
2018-12-22T20:36:22.588Z,14.57
2018-12-22T20:41:25.048Z,21.20
2018-12-22T20:46:29.481Z,14.70
2018-12-22T20:51:32.969Z,11.27
2018-12-22T20:56:36.412Z,12.57
2018-12-22T21:01:39.894Z,12.93
2018-12-22T21:06:43.544Z,18.77
2018-12-22T21:11:48.376Z,12.27
2018-12-22T21:25:08.566Z,13.70
2018-12-22T21:30:30.634Z,12.27
2018-12-22T21:35:33.085Z,11.63
2018-12-22T21:40:35.540Z,12.73
2018-12-22T21:45:38.134Z,12.57
2018-12-22T21:50:41.630Z,11.80
2018-12-22T21:55:44.185Z,12.47
2018-12-22T22:00:46.637Z,13.37
2018-12-22T22:05:50.077Z,9.97
2018-12-22T22:10:52.532Z,10.07
2018-12-22T22:15:54.973Z,11.30
2018-12-22T22:20:57.424Z,10.73
2018-12-22T22:25:59.908Z,10.97
2018-12-22T22:31:02.360Z,13.47
2018-12-22T22:36:04.804Z,6.47
2018-12-22T22:41:07.400Z,6.57
2018-12-22T22:46:09.848Z,6.87
2018-12-22T22:51:12.294Z,7.87
2018-12-22T22:56:14.784Z,12.13
2018-12-22T23:01:17.452Z,7.67
2018-12-22T23:06:20.152Z,11.50
2018-12-22T23:11:22.648Z,12.60
2018-12-22T23:16:25.103Z,13.57
2018-12-22T23:21:27.548Z,16.13
2018-12-22T23:26:30.014Z,9.23
2018-12-22T23:31:32.477Z,17.03
2018-12-22T23:36:34.975Z,18.77
2018-12-22T23:41:37.452Z,15.60
2018-12-22T23:46:39.905Z,18.07
2018-12-22T23:51:42.476Z,18.83
2018-12-22T23:56:45.837Z,17.17
